sensor_id;sensor_type;location;lat;lon;timestamp;P1;durP1;ratioP1;P2;durP2;ratioP2
19358;SDS011;9815;52.334;20.890;2022-07-29T00:01:41;7.77;;;3.23;;
19358;SDS011;9815;52.334;20.890;2022-07-29T00:04:10;6.63;;;3.00;;
19358;SDS011;9815;52.334;20.890;2022-07-29T00:06:39;7.20;;;3.40;;
19358;SDS011;9815;52.334;20.890;2022-07-29T00:09:08;9.47;;;3.37;;
19358;SDS011;9815;52.334;20.890;2022-07-29T00:11:36;5.30;;;3.23;;
19358;SDS011;9815;52.334;20.890;2022-07-29T00:14:05;7.83;;;3.37;;
19358;SDS011;9815;52.334;20.890;2022-07-29T00:16:33;5.80;;;3.27;;
19358;SDS011;9815;52.334;20.890;2022-07-29T00:19:03;10.50;;;3.43;;
19358;SDS011;9815;52.334;20.890;2022-07-29T00:21:33;8.10;;;3.57;;
19358;SDS011;9815;52.334;20.890;2022-07-29T00:24:01;6.77;;;3.17;;
19358;SDS011;9815;52.334;20.890;2022-07-29T00:26:30;9.13;;;3.03;;
19358;SDS011;9815;52.334;20.890;2022-07-29T00:28:59;9.83;;;3.33;;
19358;SDS011;9815;52.334;20.890;2022-07-29T00:31:47;6.57;;;3.23;;
19358;SDS011;9815;52.334;20.890;2022-07-29T00:34:17;7.60;;;3.30;;
19358;SDS011;9815;52.334;20.890;2022-07-29T00:37:02;7.80;;;3.57;;
19358;SDS011;9815;52.334;20.890;2022-07-29T00:39:33;5.13;;;3.30;;
19358;SDS011;9815;52.334;20.890;2022-07-29T00:42:01;9.77;;;3.43;;
19358;SDS011;9815;52.334;20.890;2022-07-29T00:44:30;11.53;;;3.37;;
19358;SDS011;9815;52.334;20.890;2022-07-29T00:47:03;8.13;;;3.50;;
19358;SDS011;9815;52.334;20.890;2022-07-29T00:49:33;6.17;;;3.17;;
19358;SDS011;9815;52.334;20.890;2022-07-29T00:52:02;6.87;;;3.30;;
19358;SDS011;9815;52.334;20.890;2022-07-29T00:54:32;7.90;;;3.20;;
19358;SDS011;9815;52.334;20.890;2022-07-29T00:57:04;9.53;;;3.50;;
19358;SDS011;9815;52.334;20.890;2022-07-29T00:59:34;11.67;;;3.70;;
19358;SDS011;9815;52.334;20.890;2022-07-29T01:02:02;8.73;;;3.63;;
19358;SDS011;9815;52.334;20.890;2022-07-29T01:04:31;8.63;;;3.37;;
19358;SDS011;9815;52.334;20.890;2022-07-29T01:07:01;5.60;;;3.50;;
19358;SDS011;9815;52.334;20.890;2022-07-29T01:09:31;5.57;;;3.30;;
19358;SDS011;9815;52.334;20.890;2022-07-29T01:12:13;10.07;;;3.53;;
19358;SDS011;9815;52.334;20.890;2022-07-29T01:14:44;5.20;;;3.27;;
19358;SDS011;9815;52.334;20.890;2022-07-29T01:17:16;6.73;;;3.57;;
19358;SDS011;9815;52.334;20.890;2022-07-29T01:19:50;8.00;;;3.30;;
19358;SDS011;9815;52.334;20.890;2022-07-29T01:22:28;6.80;;;3.50;;
19358;SDS011;9815;52.334;20.890;2022-07-29T01:30:53;7.47;;;3.40;;
19358;SDS011;9815;52.334;20.890;2022-07-29T01:33:23;6.03;;;3.40;;
19358;SDS011;9815;52.334;20.890;2022-07-29T01:36:13;6.87;;;3.47;;
19358;SDS011;9815;52.334;20.890;2022-07-29T01:38:45;5.57;;;3.23;;
19358;SDS011;9815;52.334;20.890;2022-07-29T01:41:26;9.23;;;3.30;;
19358;SDS011;9815;52.334;20.890;2022-07-29T01:44:02;6.47;;;3.30;;
19358;SDS011;9815;52.334;20.890;2022-07-29T01:46:39;9.03;;;3.97;;
19358;SDS011;9815;52.334;20.890;2022-07-29T01:49:13;8.37;;;3.37;;
19358;SDS011;9815;52.334;20.890;2022-07-29T01:51:45;6.27;;;3.40;;
19358;SDS011;9815;52.334;20.890;2022-07-29T01:54:18;10.83;;;4.03;;
19358;SDS011;9815;52.334;20.890;2022-07-29T01:56:50;8.23;;;3.93;;
19358;SDS011;9815;52.334;20.890;2022-07-29T01:59:21;5.27;;;3.20;;
19358;SDS011;9815;52.334;20.890;2022-07-29T02:01:52;7.20;;;3.53;;
19358;SDS011;9815;52.334;20.890;2022-07-29T02:04:21;7.60;;;3.73;;
19358;SDS011;9815;52.334;20.890;2022-07-29T02:06:56;5.70;;;3.40;;
19358;SDS011;9815;52.334;20.890;2022-07-29T02:09:28;8.50;;;3.97;;
19358;SDS011;9815;52.334;20.890;2022-07-29T02:11:57;6.37;;;3.50;;
19358;SDS011;9815;52.334;20.890;2022-07-29T02:14:28;7.10;;;3.40;;
19358;SDS011;9815;52.334;20.890;2022-07-29T02:17:02;7.63;;;3.13;;
19358;SDS011;9815;52.334;20.890;2022-07-29T02:19:31;6.50;;;3.30;;
19358;SDS011;9815;52.334;20.890;2022-07-29T02:22:00;6.10;;;3.60;;
19358;SDS011;9815;52.334;20.890;2022-07-29T02:24:29;8.73;;;3.90;;
19358;SDS011;9815;52.334;20.890;2022-07-29T02:26:58;5.33;;;3.20;;
19358;SDS011;9815;52.334;20.890;2022-07-29T02:29:28;9.40;;;3.67;;
19358;SDS011;9815;52.334;20.890;2022-07-29T02:31:58;6.10;;;3.23;;
19358;SDS011;9815;52.334;20.890;2022-07-29T02:34:29;6.43;;;3.70;;
19358;SDS011;9815;52.334;20.890;2022-07-29T02:36:59;6.03;;;3.63;;
19358;SDS011;9815;52.334;20.890;2022-07-29T02:39:28;7.40;;;3.60;;
19358;SDS011;9815;52.334;20.890;2022-07-29T02:41:58;7.33;;;3.57;;
19358;SDS011;9815;52.334;20.890;2022-07-29T02:44:30;7.80;;;3.20;;
19358;SDS011;9815;52.334;20.890;2022-07-29T02:47:02;6.40;;;3.60;;
19358;SDS011;9815;52.334;20.890;2022-07-29T02:49:37;4.83;;;3.10;;
19358;SDS011;9815;52.334;20.890;2022-07-29T02:52:10;5.93;;;3.60;;
19358;SDS011;9815;52.334;20.890;2022-07-29T02:54:46;5.40;;;3.53;;
19358;SDS011;9815;52.334;20.890;2022-07-29T02:57:22;8.17;;;3.60;;
19358;SDS011;9815;52.334;20.890;2022-07-29T02:59:57;7.93;;;3.83;;
19358;SDS011;9815;52.334;20.890;2022-07-29T03:02:30;9.67;;;3.90;;
19358;SDS011;9815;52.334;20.890;2022-07-29T03:05:04;6.83;;;3.67;;
19358;SDS011;9815;52.334;20.890;2022-07-29T03:07:35;7.07;;;3.37;;
19358;SDS011;9815;52.334;20.890;2022-07-29T03:10:06;9.27;;;3.83;;
19358;SDS011;9815;52.334;20.890;2022-07-29T03:12:39;6.80;;;3.90;;
19358;SDS011;9815;52.334;20.890;2022-07-29T03:15:08;6.10;;;4.03;;
19358;SDS011;9815;52.334;20.890;2022-07-29T03:17:38;9.40;;;3.90;;
19358;SDS011;9815;52.334;20.890;2022-07-29T03:20:09;6.37;;;3.37;;
19358;SDS011;9815;52.334;20.890;2022-07-29T03:22:39;6.97;;;3.80;;
19358;SDS011;9815;52.334;20.890;2022-07-29T03:25:10;6.53;;;4.10;;
19358;SDS011;9815;52.334;20.890;2022-07-29T03:27:39;6.30;;;3.63;;
19358;SDS011;9815;52.334;20.890;2022-07-29T03:30:08;4.97;;;3.60;;
19358;SDS011;9815;52.334;20.890;2022-07-29T03:32:43;5.87;;;3.70;;
19358;SDS011;9815;52.334;20.890;2022-07-29T03:35:13;6.47;;;3.47;;
19358;SDS011;9815;52.334;20.890;2022-07-29T03:37:42;7.77;;;3.80;;
19358;SDS011;9815;52.334;20.890;2022-07-29T03:40:11;9.53;;;3.70;;
19358;SDS011;9815;52.334;20.890;2022-07-29T03:42:45;7.10;;;3.60;;
19358;SDS011;9815;52.334;20.890;2022-07-29T03:45:17;8.40;;;4.17;;
19358;SDS011;9815;52.334;20.890;2022-07-29T03:47:47;6.40;;;3.80;;
19358;SDS011;9815;52.334;20.890;2022-07-29T03:50:27;5.67;;;4.03;;
19358;SDS011;9815;52.334;20.890;2022-07-29T03:52:57;6.83;;;3.87;;
19358;SDS011;9815;52.334;20.890;2022-07-29T03:55:26;9.10;;;3.87;;
19358;SDS011;9815;52.334;20.890;2022-07-29T03:57:58;8.30;;;3.97;;
19358;SDS011;9815;52.334;20.890;2022-07-29T04:00:28;7.93;;;4.07;;
19358;SDS011;9815;52.334;20.890;2022-07-29T04:02:57;7.63;;;3.80;;
19358;SDS011;9815;52.334;20.890;2022-07-29T04:05:27;6.93;;;4.00;;
19358;SDS011;9815;52.334;20.890;2022-07-29T04:07:55;6.77;;;3.97;;
19358;SDS011;9815;52.334;20.890;2022-07-29T04:10:24;6.37;;;3.90;;
19358;SDS011;9815;52.334;20.890;2022-07-29T04:12:57;5.40;;;4.10;;
19358;SDS011;9815;52.334;20.890;2022-07-29T04:15:26;8.17;;;4.00;;
19358;SDS011;9815;52.334;20.890;2022-07-29T04:17:57;7.13;;;4.10;;
19358;SDS011;9815;52.334;20.890;2022-07-29T04:20:26;5.43;;;4.10;;
19358;SDS011;9815;52.334;20.890;2022-07-29T04:22:55;8.13;;;4.37;;
19358;SDS011;9815;52.334;20.890;2022-07-29T04:25:23;9.27;;;4.20;;
19358;SDS011;9815;52.334;20.890;2022-07-29T04:27:51;6.90;;;4.00;;
19358;SDS011;9815;52.334;20.890;2022-07-29T04:30:29;7.20;;;4.13;;
19358;SDS011;9815;52.334;20.890;2022-07-29T04:32:58;6.47;;;3.90;;
19358;SDS011;9815;52.334;20.890;2022-07-29T04:35:28;5.93;;;4.10;;
19358;SDS011;9815;52.334;20.890;2022-07-29T04:38:04;6.77;;;4.00;;
19358;SDS011;9815;52.334;20.890;2022-07-29T04:40:42;5.77;;;3.60;;
19358;SDS011;9815;52.334;20.890;2022-07-29T04:43:12;5.53;;;3.80;;
19358;SDS011;9815;52.334;20.890;2022-07-29T04:45:41;6.00;;;3.93;;
19358;SDS011;9815;52.334;20.890;2022-07-29T04:48:09;8.13;;;3.90;;
19358;SDS011;9815;52.334;20.890;2022-07-29T04:50:39;5.70;;;4.37;;
19358;SDS011;9815;52.334;20.890;2022-07-29T04:53:08;5.97;;;4.10;;
19358;SDS011;9815;52.334;20.890;2022-07-29T04:55:36;7.13;;;3.50;;
19358;SDS011;9815;52.334;20.890;2022-07-29T04:58:04;6.13;;;3.57;;
19358;SDS011;9815;52.334;20.890;2022-07-29T05:00:33;7.73;;;3.50;;
19358;SDS011;9815;52.334;20.890;2022-07-29T05:03:02;5.03;;;3.37;;
19358;SDS011;9815;52.334;20.890;2022-07-29T05:05:30;5.30;;;3.40;;
19358;SDS011;9815;52.334;20.890;2022-07-29T05:08:00;4.43;;;3.33;;
19358;SDS011;9815;52.334;20.890;2022-07-29T05:10:28;4.53;;;3.10;;
19358;SDS011;9815;52.334;20.890;2022-07-29T05:12:57;5.10;;;2.90;;
19358;SDS011;9815;52.334;20.890;2022-07-29T05:15:25;6.43;;;3.00;;
19358;SDS011;9815;52.334;20.890;2022-07-29T05:17:53;5.50;;;3.03;;
19358;SDS011;9815;52.334;20.890;2022-07-29T05:20:21;4.97;;;2.67;;
19358;SDS011;9815;52.334;20.890;2022-07-29T05:22:52;3.90;;;2.37;;
19358;SDS011;9815;52.334;20.890;2022-07-29T05:25:22;3.27;;;2.50;;
19358;SDS011;9815;52.334;20.890;2022-07-29T05:28:09;3.20;;;2.20;;
19358;SDS011;9815;52.334;20.890;2022-07-29T05:30:38;5.63;;;2.10;;
19358;SDS011;9815;52.334;20.890;2022-07-29T05:33:06;7.33;;;2.07;;
19358;SDS011;9815;52.334;20.890;2022-07-29T05:35:54;4.83;;;2.03;;
19358;SDS011;9815;52.334;20.890;2022-07-29T05:38:26;4.07;;;2.27;;
19358;SDS011;9815;52.334;20.890;2022-07-29T05:40:57;3.10;;;1.90;;
19358;SDS011;9815;52.334;20.890;2022-07-29T05:43:26;8.50;;;2.30;;
19358;SDS011;9815;52.334;20.890;2022-07-29T05:45:54;3.10;;;1.70;;
19358;SDS011;9815;52.334;20.890;2022-07-29T05:48:23;3.47;;;1.97;;
19358;SDS011;9815;52.334;20.890;2022-07-29T05:50:51;2.43;;;1.57;;
19358;SDS011;9815;52.334;20.890;2022-07-29T05:53:19;5.47;;;1.60;;
19358;SDS011;9815;52.334;20.890;2022-07-29T05:55:48;4.70;;;1.80;;
19358;SDS011;9815;52.334;20.890;2022-07-29T05:58:18;2.37;;;1.73;;
19358;SDS011;9815;52.334;20.890;2022-07-29T06:00:46;4.37;;;1.80;;
19358;SDS011;9815;52.334;20.890;2022-07-29T06:03:14;2.97;;;1.50;;
19358;SDS011;9815;52.334;20.890;2022-07-29T06:05:43;5.00;;;1.77;;
19358;SDS011;9815;52.334;20.890;2022-07-29T06:08:11;6.23;;;1.50;;
19358;SDS011;9815;52.334;20.890;2022-07-29T06:10:39;2.17;;;1.67;;
19358;SDS011;9815;52.334;20.890;2022-07-29T06:13:08;3.47;;;1.57;;
19358;SDS011;9815;52.334;20.890;2022-07-29T06:15:37;4.27;;;1.70;;
19358;SDS011;9815;52.334;20.890;2022-07-29T06:18:06;5.97;;;1.50;;
19358;SDS011;9815;52.334;20.890;2022-07-29T06:20:36;5.63;;;1.40;;
19358;SDS011;9815;52.334;20.890;2022-07-29T06:23:04;3.33;;;1.40;;
19358;SDS011;9815;52.334;20.890;2022-07-29T06:25:33;4.10;;;1.57;;
19358;SDS011;9815;52.334;20.890;2022-07-29T06:28:03;3.70;;;1.47;;
19358;SDS011;9815;52.334;20.890;2022-07-29T06:30:31;3.60;;;1.30;;
19358;SDS011;9815;52.334;20.890;2022-07-29T06:33:01;3.13;;;1.63;;
19358;SDS011;9815;52.334;20.890;2022-07-29T06:35:29;3.27;;;1.63;;
19358;SDS011;9815;52.334;20.890;2022-07-29T06:38:07;2.63;;;1.50;;
19358;SDS011;9815;52.334;20.890;2022-07-29T06:40:56;1.53;;;1.10;;
19358;SDS011;9815;52.334;20.890;2022-07-29T06:43:31;4.40;;;1.40;;
19358;SDS011;9815;52.334;20.890;2022-07-29T06:46:18;4.60;;;1.77;;
19358;SDS011;9815;52.334;20.890;2022-07-29T06:48:49;1.87;;;1.13;;
19358;SDS011;9815;52.334;20.890;2022-07-29T06:51:18;4.73;;;1.10;;
19358;SDS011;9815;52.334;20.890;2022-07-29T06:53:49;2.67;;;1.00;;
19358;SDS011;9815;52.334;20.890;2022-07-29T06:56:29;1.83;;;1.10;;
19358;SDS011;9815;52.334;20.890;2022-07-29T06:59:05;1.97;;;1.17;;
19358;SDS011;9815;52.334;20.890;2022-07-29T07:01:35;3.37;;;1.20;;
19358;SDS011;9815;52.334;20.890;2022-07-29T07:04:05;3.63;;;1.10;;
19358;SDS011;9815;52.334;20.890;2022-07-29T07:06:35;3.70;;;1.20;;
19358;SDS011;9815;52.334;20.890;2022-07-29T07:09:03;2.80;;;1.10;;
19358;SDS011;9815;52.334;20.890;2022-07-29T07:11:31;4.73;;;1.20;;
19358;SDS011;9815;52.334;20.890;2022-07-29T07:14:00;3.10;;;1.20;;
19358;SDS011;9815;52.334;20.890;2022-07-29T07:16:29;2.30;;;1.23;;
19358;SDS011;9815;52.334;20.890;2022-07-29T07:18:58;2.03;;;1.30;;
19358;SDS011;9815;52.334;20.890;2022-07-29T07:21:28;3.83;;;1.30;;
19358;SDS011;9815;52.334;20.890;2022-07-29T07:23:57;2.20;;;1.10;;
19358;SDS011;9815;52.334;20.890;2022-07-29T07:26:26;3.33;;;1.17;;
19358;SDS011;9815;52.334;20.890;2022-07-29T07:28:54;7.23;;;1.30;;
19358;SDS011;9815;52.334;20.890;2022-07-29T07:31:23;2.17;;;1.00;;
19358;SDS011;9815;52.334;20.890;2022-07-29T07:33:51;3.37;;;1.13;;
19358;SDS011;9815;52.334;20.890;2022-07-29T07:36:20;1.93;;;1.20;;
19358;SDS011;9815;52.334;20.890;2022-07-29T07:38:53;4.10;;;1.10;;
19358;SDS011;9815;52.334;20.890;2022-07-29T07:41:22;4.77;;;1.10;;
19358;SDS011;9815;52.334;20.890;2022-07-29T07:43:50;1.20;;;0.83;;
19358;SDS011;9815;52.334;20.890;2022-07-29T07:46:18;2.17;;;1.30;;
19358;SDS011;9815;52.334;20.890;2022-07-29T07:48:47;1.87;;;1.10;;
19358;SDS011;9815;52.334;20.890;2022-07-29T07:51:15;2.83;;;1.00;;
19358;SDS011;9815;52.334;20.890;2022-07-29T07:53:43;4.30;;;1.10;;
19358;SDS011;9815;52.334;20.890;2022-07-29T07:56:17;3.83;;;0.97;;
19358;SDS011;9815;52.334;20.890;2022-07-29T07:58:45;1.90;;;0.97;;
19358;SDS011;9815;52.334;20.890;2022-07-29T08:01:14;1.27;;;0.90;;
19358;SDS011;9815;52.334;20.890;2022-07-29T08:03:45;3.80;;;1.03;;
19358;SDS011;9815;52.334;20.890;2022-07-29T08:06:13;1.67;;;0.90;;
19358;SDS011;9815;52.334;20.890;2022-07-29T08:08:41;2.10;;;1.00;;
19358;SDS011;9815;52.334;20.890;2022-07-29T08:11:09;2.00;;;0.90;;
19358;SDS011;9815;52.334;20.890;2022-07-29T08:13:39;4.70;;;1.10;;
19358;SDS011;9815;52.334;20.890;2022-07-29T08:16:08;10.97;;;1.10;;
19358;SDS011;9815;52.334;20.890;2022-07-29T08:18:39;1.80;;;0.90;;
19358;SDS011;9815;52.334;20.890;2022-07-29T08:21:08;1.40;;;0.70;;
19358;SDS011;9815;52.334;20.890;2022-07-29T08:23:41;5.55;;;0.93;;
19358;SDS011;9815;52.334;20.890;2022-07-29T08:26:26;2.60;;;1.10;;
19358;SDS011;9815;52.334;20.890;2022-07-29T08:28:55;3.20;;;1.00;;
19358;SDS011;9815;52.334;20.890;2022-07-29T08:31:23;2.93;;;1.00;;
19358;SDS011;9815;52.334;20.890;2022-07-29T08:33:52;2.57;;;1.00;;
19358;SDS011;9815;52.334;20.890;2022-07-29T08:36:22;2.20;;;0.87;;
19358;SDS011;9815;52.334;20.890;2022-07-29T08:38:51;2.43;;;1.10;;
19358;SDS011;9815;52.334;20.890;2022-07-29T08:41:19;4.27;;;1.20;;
19358;SDS011;9815;52.334;20.890;2022-07-29T08:43:47;1.70;;;0.98;;
19358;SDS011;9815;52.334;20.890;2022-07-29T08:46:17;4.87;;;1.00;;
19358;SDS011;9815;52.334;20.890;2022-07-29T08:48:46;2.08;;;1.10;;
19358;SDS011;9815;52.334;20.890;2022-07-29T08:51:17;2.80;;;0.90;;
19358;SDS011;9815;52.334;20.890;2022-07-29T08:53:47;3.33;;;0.90;;
19358;SDS011;9815;52.334;20.890;2022-07-29T08:56:17;4.32;;;0.95;;
19358;SDS011;9815;52.334;20.890;2022-07-29T08:58:46;2.33;;;0.82;;
19358;SDS011;9815;52.334;20.890;2022-07-29T09:01:22;2.78;;;0.90;;
19358;SDS011;9815;52.334;20.890;2022-07-29T09:04:02;5.05;;;1.42;;
19358;SDS011;9815;52.334;20.890;2022-07-29T09:06:34;3.40;;;1.10;;
19358;SDS011;9815;52.334;20.890;2022-07-29T09:09:07;3.20;;;0.93;;
19358;SDS011;9815;52.334;20.890;2022-07-29T09:11:35;2.95;;;1.10;;
19358;SDS011;9815;52.334;20.890;2022-07-29T09:14:04;2.28;;;1.23;;
19358;SDS011;9815;52.334;20.890;2022-07-29T09:16:46;2.13;;;0.98;;
19358;SDS011;9815;52.334;20.890;2022-07-29T09:19:27;2.00;;;1.08;;
19358;SDS011;9815;52.334;20.890;2022-07-29T09:21:58;2.88;;;0.88;;
19358;SDS011;9815;52.334;20.890;2022-07-29T09:24:39;3.15;;;1.00;;
19358;SDS011;9815;52.334;20.890;2022-07-29T09:27:19;2.28;;;1.35;;
19358;SDS011;9815;52.334;20.890;2022-07-29T09:29:57;4.78;;;0.95;;
19358;SDS011;9815;52.334;20.890;2022-07-29T09:32:28;2.10;;;1.00;;
19358;SDS011;9815;52.334;20.890;2022-07-29T09:35:16;2.28;;;0.80;;
19358;SDS011;9815;52.334;20.890;2022-07-29T09:37:45;2.97;;;0.90;;
19358;SDS011;9815;52.334;20.890;2022-07-29T09:40:15;2.22;;;1.00;;
19358;SDS011;9815;52.334;20.890;2022-07-29T09:42:46;2.97;;;1.20;;
19358;SDS011;9815;52.334;20.890;2022-07-29T09:45:26;3.10;;;0.98;;
19358;SDS011;9815;52.334;20.890;2022-07-29T09:47:57;2.33;;;0.98;;
19358;SDS011;9815;52.334;20.890;2022-07-29T09:50:35;2.83;;;0.80;;
19358;SDS011;9815;52.334;20.890;2022-07-29T09:53:05;3.80;;;0.80;;
19358;SDS011;9815;52.334;20.890;2022-07-29T09:55:45;1.50;;;0.70;;
19358;SDS011;9815;52.334;20.890;2022-07-29T09:58:17;2.30;;;0.90;;
19358;SDS011;9815;52.334;20.890;2022-07-29T10:00:46;4.95;;;1.20;;
19358;SDS011;9815;52.334;20.890;2022-07-29T10:03:17;1.63;;;0.90;;
19358;SDS011;9815;52.334;20.890;2022-07-29T10:05:46;3.05;;;1.15;;
19358;SDS011;9815;52.334;20.890;2022-07-29T10:08:32;2.78;;;0.90;;
19358;SDS011;9815;52.334;20.890;2022-07-29T10:11:08;2.55;;;1.23;;
19358;SDS011;9815;52.334;20.890;2022-07-29T10:13:38;1.35;;;0.70;;
19358;SDS011;9815;52.334;20.890;2022-07-29T10:16:07;2.13;;;0.90;;
19358;SDS011;9815;52.334;20.890;2022-07-29T10:18:38;3.58;;;1.00;;
19358;SDS011;9815;52.334;20.890;2022-07-29T10:21:07;3.08;;;0.90;;
19358;SDS011;9815;52.334;20.890;2022-07-29T10:23:47;1.40;;;0.80;;
19358;SDS011;9815;52.334;20.890;2022-07-29T10:26:16;4.97;;;0.82;;
19358;SDS011;9815;52.334;20.890;2022-07-29T10:28:46;1.27;;;0.70;;
19358;SDS011;9815;52.334;20.890;2022-07-29T10:31:15;1.73;;;0.88;;
19358;SDS011;9815;52.334;20.890;2022-07-29T10:33:55;2.72;;;0.70;;
19358;SDS011;9815;52.334;20.890;2022-07-29T10:36:35;3.55;;;0.77;;
19358;SDS011;9815;52.334;20.890;2022-07-29T10:39:16;2.88;;;0.70;;
19358;SDS011;9815;52.334;20.890;2022-07-29T10:42:11;1.52;;;0.73;;
19358;SDS011;9815;52.334;20.890;2022-07-29T10:44:58;1.20;;;0.65;;
19358;SDS011;9815;52.334;20.890;2022-07-29T10:47:27;2.55;;;1.00;;
19358;SDS011;9815;52.334;20.890;2022-07-29T10:49:58;2.00;;;1.33;;
19358;SDS011;9815;52.334;20.890;2022-07-29T10:55:35;2.50;;;0.80;;
19358;SDS011;9815;52.334;20.890;2022-07-29T10:58:12;2.13;;;0.80;;
19358;SDS011;9815;52.334;20.890;2022-07-29T11:00:43;0.85;;;0.60;;
19358;SDS011;9815;52.334;20.890;2022-07-29T11:06:18;1.27;;;0.80;;
19358;SDS011;9815;52.334;20.890;2022-07-29T11:12:00;5.80;;;1.00;;
19358;SDS011;9815;52.334;20.890;2022-07-29T11:17:23;1.63;;;0.65;;
19358;SDS011;9815;52.334;20.890;2022-07-29T11:19:52;2.20;;;0.80;;
19358;SDS011;9815;52.334;20.890;2022-07-29T11:23:00;2.00;;;0.63;;
19358;SDS011;9815;52.334;20.890;2022-07-29T11:25:29;1.20;;;0.60;;
19358;SDS011;9815;52.334;20.890;2022-07-29T11:28:17;1.73;;;0.60;;
19358;SDS011;9815;52.334;20.890;2022-07-29T11:31:08;1.73;;;0.73;;
19358;SDS011;9815;52.334;20.890;2022-07-29T11:33:38;1.67;;;0.65;;
19358;SDS011;9815;52.334;20.890;2022-07-29T11:36:22;3.42;;;0.90;;
19358;SDS011;9815;52.334;20.890;2022-07-29T11:39:02;1.05;;;0.60;;
19358;SDS011;9815;52.334;20.890;2022-07-29T11:45:08;3.20;;;0.90;;
19358;SDS011;9815;52.334;20.890;2022-07-29T11:47:59;5.80;;;3.30;;
19358;SDS011;9815;52.334;20.890;2022-07-29T11:50:47;2.30;;;1.20;;
19358;SDS011;9815;52.334;20.890;2022-07-29T11:53:16;3.17;;;0.90;;
19358;SDS011;9815;52.334;20.890;2022-07-29T11:55:47;2.35;;;0.90;;
19358;SDS011;9815;52.334;20.890;2022-07-29T11:58:23;3.70;;;0.60;;
19358;SDS011;9815;52.334;20.890;2022-07-29T12:00:53;1.67;;;0.60;;
19358;SDS011;9815;52.334;20.890;2022-07-29T12:03:23;2.25;;;0.77;;
19358;SDS011;9815;52.334;20.890;2022-07-29T12:06:01;2.33;;;0.65;;
19358;SDS011;9815;52.334;20.890;2022-07-29T12:08:38;1.60;;;0.60;;
19358;SDS011;9815;52.334;20.890;2022-07-29T12:11:16;1.90;;;0.70;;
19358;SDS011;9815;52.334;20.890;2022-07-29T12:13:47;1.17;;;0.70;;
19358;SDS011;9815;52.334;20.890;2022-07-29T12:16:18;3.72;;;0.88;;
19358;SDS011;9815;52.334;20.890;2022-07-29T12:18:58;1.42;;;0.65;;
19358;SDS011;9815;52.334;20.890;2022-07-29T12:21:28;3.45;;;1.15;;
19358;SDS011;9815;52.334;20.890;2022-07-29T12:23:56;2.85;;;0.85;;
19358;SDS011;9815;52.334;20.890;2022-07-29T12:26:36;2.00;;;0.68;;
19358;SDS011;9815;52.334;20.890;2022-07-29T12:29:17;3.20;;;0.70;;
19358;SDS011;9815;52.334;20.890;2022-07-29T12:32:01;2.10;;;0.85;;
19358;SDS011;9815;52.334;20.890;2022-07-29T12:34:31;2.40;;;0.70;;
19358;SDS011;9815;52.334;20.890;2022-07-29T12:36:59;1.77;;;0.63;;
19358;SDS011;9815;52.334;20.890;2022-07-29T12:39:28;1.23;;;0.75;;
19358;SDS011;9815;52.334;20.890;2022-07-29T12:41:59;1.98;;;0.75;;
19358;SDS011;9815;52.334;20.890;2022-07-29T12:44:43;1.73;;;0.60;;
19358;SDS011;9815;52.334;20.890;2022-07-29T12:47:12;2.17;;;0.82;;
19358;SDS011;9815;52.334;20.890;2022-07-29T12:49:41;2.35;;;0.93;;
19358;SDS011;9815;52.334;20.890;2022-07-29T12:52:25;1.58;;;0.80;;
19358;SDS011;9815;52.334;20.890;2022-07-29T12:54:54;2.97;;;0.90;;
19358;SDS011;9815;52.334;20.890;2022-07-29T12:57:24;1.83;;;0.90;;
19358;SDS011;9815;52.334;20.890;2022-07-29T13:00:00;1.70;;;0.80;;
19358;SDS011;9815;52.334;20.890;2022-07-29T13:02:30;4.53;;;0.75;;
19358;SDS011;9815;52.334;20.890;2022-07-29T13:04:59;3.33;;;0.80;;
19358;SDS011;9815;52.334;20.890;2022-07-29T13:07:29;2.28;;;0.70;;
19358;SDS011;9815;52.334;20.890;2022-07-29T13:10:19;2.13;;;0.80;;
19358;SDS011;9815;52.334;20.890;2022-07-29T13:13:07;2.33;;;0.80;;
19358;SDS011;9815;52.334;20.890;2022-07-29T13:15:37;6.10;;;0.70;;
19358;SDS011;9815;52.334;20.890;2022-07-29T13:20:57;2.88;;;0.90;;
19358;SDS011;9815;52.334;20.890;2022-07-29T13:23:38;2.95;;;0.77;;
19358;SDS011;9815;52.334;20.890;2022-07-29T13:26:06;2.25;;;0.98;;
19358;SDS011;9815;52.334;20.890;2022-07-29T13:28:37;1.75;;;0.80;;
19358;SDS011;9815;52.334;20.890;2022-07-29T13:31:05;1.73;;;0.75;;
19358;SDS011;9815;52.334;20.890;2022-07-29T13:33:33;1.40;;;0.80;;
19358;SDS011;9815;52.334;20.890;2022-07-29T13:36:01;1.50;;;0.77;;
19358;SDS011;9815;52.334;20.890;2022-07-29T13:38:30;2.90;;;0.80;;
19358;SDS011;9815;52.334;20.890;2022-07-29T13:41:01;2.30;;;0.60;;
19358;SDS011;9815;52.334;20.890;2022-07-29T13:43:30;3.47;;;0.60;;
19358;SDS011;9815;52.334;20.890;2022-07-29T13:46:00;3.13;;;0.70;;
19358;SDS011;9815;52.334;20.890;2022-07-29T13:48:28;1.33;;;0.80;;
19358;SDS011;9815;52.334;20.890;2022-07-29T13:50:57;1.25;;;0.75;;
19358;SDS011;9815;52.334;20.890;2022-07-29T13:53:25;3.80;;;0.70;;
19358;SDS011;9815;52.334;20.890;2022-07-29T13:55:54;3.33;;;0.73;;
19358;SDS011;9815;52.334;20.890;2022-07-29T13:58:22;1.90;;;0.70;;
19358;SDS011;9815;52.334;20.890;2022-07-29T14:00:51;2.03;;;0.57;;
19358;SDS011;9815;52.334;20.890;2022-07-29T14:03:21;1.95;;;0.80;;
19358;SDS011;9815;52.334;20.890;2022-07-29T14:05:49;4.13;;;0.88;;
19358;SDS011;9815;52.334;20.890;2022-07-29T14:08:17;1.60;;;0.80;;
19358;SDS011;9815;52.334;20.890;2022-07-29T14:10:45;1.98;;;0.80;;
19358;SDS011;9815;52.334;20.890;2022-07-29T14:13:16;1.88;;;0.77;;
19358;SDS011;9815;52.334;20.890;2022-07-29T14:15:51;1.60;;;0.73;;
19358;SDS011;9815;52.334;20.890;2022-07-29T14:18:20;2.03;;;0.70;;
19358;SDS011;9815;52.334;20.890;2022-07-29T14:20:48;3.55;;;0.70;;
19358;SDS011;9815;52.334;20.890;2022-07-29T14:23:17;1.63;;;0.60;;
19358;SDS011;9815;52.334;20.890;2022-07-29T14:25:45;2.92;;;0.70;;
19358;SDS011;9815;52.334;20.890;2022-07-29T14:28:15;2.17;;;0.90;;
19358;SDS011;9815;52.334;20.890;2022-07-29T14:30:43;3.80;;;0.82;;
19358;SDS011;9815;52.334;20.890;2022-07-29T14:33:11;1.58;;;0.80;;
19358;SDS011;9815;52.334;20.890;2022-07-29T14:35:41;1.58;;;0.60;;
19358;SDS011;9815;52.334;20.890;2022-07-29T14:38:09;1.55;;;0.60;;
19358;SDS011;9815;52.334;20.890;2022-07-29T14:40:38;1.35;;;0.70;;
19358;SDS011;9815;52.334;20.890;2022-07-29T14:43:06;2.33;;;0.70;;
19358;SDS011;9815;52.334;20.890;2022-07-29T14:45:34;2.45;;;0.73;;
19358;SDS011;9815;52.334;20.890;2022-07-29T14:48:03;2.08;;;0.70;;
19358;SDS011;9815;52.334;20.890;2022-07-29T14:50:31;2.47;;;0.80;;
19358;SDS011;9815;52.334;20.890;2022-07-29T14:53:01;1.65;;;0.90;;
19358;SDS011;9815;52.334;20.890;2022-07-29T14:55:29;1.58;;;0.70;;
19358;SDS011;9815;52.334;20.890;2022-07-29T14:57:57;1.17;;;0.70;;
19358;SDS011;9815;52.334;20.890;2022-07-29T15:00:38;2.40;;;0.82;;
19358;SDS011;9815;52.334;20.890;2022-07-29T15:03:06;2.83;;;0.68;;
19358;SDS011;9815;52.334;20.890;2022-07-29T15:05:36;1.98;;;0.70;;
19358;SDS011;9815;52.334;20.890;2022-07-29T15:08:06;1.25;;;0.70;;
19358;SDS011;9815;52.334;20.890;2022-07-29T15:10:35;1.67;;;0.70;;
19358;SDS011;9815;52.334;20.890;2022-07-29T15:13:04;1.67;;;0.80;;
19358;SDS011;9815;52.334;20.890;2022-07-29T15:15:32;3.63;;;0.70;;
19358;SDS011;9815;52.334;20.890;2022-07-29T15:18:00;1.17;;;0.65;;
19358;SDS011;9815;52.334;20.890;2022-07-29T15:20:28;1.55;;;0.60;;
19358;SDS011;9815;52.334;20.890;2022-07-29T15:22:57;2.15;;;0.70;;
19358;SDS011;9815;52.334;20.890;2022-07-29T15:25:26;3.78;;;1.17;;
19358;SDS011;9815;52.334;20.890;2022-07-29T15:27:54;0.75;;;0.63;;
19358;SDS011;9815;52.334;20.890;2022-07-29T15:30:27;0.68;;;0.55;;
19358;SDS011;9815;52.334;20.890;2022-07-29T15:32:59;3.05;;;0.80;;
19358;SDS011;9815;52.334;20.890;2022-07-29T15:35:28;2.72;;;0.70;;
19358;SDS011;9815;52.334;20.890;2022-07-29T15:37:57;5.75;;;0.80;;
19358;SDS011;9815;52.334;20.890;2022-07-29T15:40:26;2.10;;;0.70;;